createdAt,value
2017-05-06T00:02:05.087Z,101941.12
2017-05-06T00:04:31.019Z,101936.52
2017-05-06T00:06:56.960Z,101929.07
2017-05-06T00:09:22.908Z,101931.45
2017-05-06T00:11:48.880Z,101928.87
2017-05-06T00:14:14.812Z,101925.34
2017-05-06T00:16:41.363Z,101918.41
2017-05-06T00:19:07.402Z,101916.50
2017-05-06T00:21:34.107Z,101910.92
2017-05-06T00:24:00.133Z,101912.32
2017-05-06T00:26:26.120Z,101909.32
2017-05-06T00:28:52.223Z,101899.75
2017-05-06T00:31:18.989Z,101900.19
2017-05-06T00:33:45.000Z,101898.55
2017-05-06T00:36:11.010Z,101893.19
2017-05-06T00:38:37.794Z,101896.70
2017-05-06T00:41:03.874Z,101892.33
2017-05-06T00:43:30.621Z,101891.52
2017-05-06T00:45:57.365Z,101888.98
2017-05-06T00:48:24.138Z,101882.81
2017-05-06T00:50:50.151Z,101884.84
2017-05-06T00:53:16.160Z,101890.89
2017-05-06T00:55:42.171Z,101886.60
2017-05-06T00:58:08.953Z,101880.55
2017-05-06T01:00:34.990Z,101884.70
2017-05-06T01:03:01.056Z,101886.53
2017-05-06T01:05:27.189Z,101885.58
2017-05-06T01:07:53.202Z,101878.64
2017-05-06T01:10:19.950Z,101871.39
2017-05-06T01:12:46.500Z,101871.80
2017-05-06T01:15:12.534Z,101867.05
2017-05-06T01:17:38.558Z,101862.72
2017-05-06T01:20:04.575Z,101863.55
2017-05-06T01:22:30.669Z,101857.51
2017-05-06T01:24:57.421Z,101859.27
2017-05-06T01:27:23.435Z,101859.57
2017-05-06T01:29:49.545Z,101860.52
2017-05-06T01:32:16.301Z,101861.80
2017-05-06T01:34:42.305Z,101856.31
2017-05-06T01:37:08.278Z,101858.96
2017-05-06T01:39:34.221Z,101860.81
2017-05-06T01:42:00.890Z,101855.16
2017-05-06T01:44:26.835Z,101859.03
2017-05-06T01:46:52.878Z,101857.73
2017-05-06T01:49:18.840Z,101858.59
2017-05-06T01:51:44.785Z,101862.39
2017-05-06T01:56:42.780Z,101846.41
2017-05-06T01:59:08.732Z,101848.14
2017-05-06T02:01:35.426Z,101837.78
2017-05-06T02:04:01.445Z,101836.95
2017-05-06T02:06:27.395Z,101830.94
2017-05-06T02:08:53.344Z,101833.13
2017-05-06T02:11:19.344Z,101832.77
2017-05-06T02:13:45.290Z,101830.63
2017-05-06T02:16:11.984Z,101827.63
2017-05-06T02:18:37.915Z,101828.17
2017-05-06T02:21:03.848Z,101821.18
2017-05-06T02:23:29.956Z,101815.47
2017-05-06T02:25:55.892Z,101810.15
2017-05-06T02:28:21.833Z,101813.30
2017-05-06T02:30:48.551Z,101807.65
2017-05-06T02:33:14.483Z,101806.84
2017-05-06T02:35:40.510Z,101806.94
2017-05-06T02:38:07.193Z,101808.36
2017-05-06T02:40:33.156Z,101803.22
2017-05-06T02:42:59.087Z,101802.81
2017-05-06T02:45:25.767Z,101798.36
2017-05-06T02:47:51.713Z,101799.63
2017-05-06T02:50:17.650Z,101803.38
2017-05-06T02:52:43.671Z,101798.27
2017-05-06T02:55:09.608Z,101794.11
2017-05-06T02:57:36.285Z,101801.95
2017-05-06T03:00:02.223Z,101799.41
2017-05-06T03:02:28.204Z,101804.14
2017-05-06T03:04:54.974Z,101804.96
2017-05-06T03:07:20.907Z,101799.02
2017-05-06T03:09:46.847Z,101797.67
2017-05-06T03:12:12.804Z,101795.97
2017-05-06T03:14:39.484Z,101799.41
2017-05-06T03:17:05.420Z,101795.05
2017-05-06T03:19:31.376Z,101793.56
2017-05-06T03:21:58.081Z,101789.59
2017-05-06T03:24:24.144Z,101793.66
2017-05-06T03:26:50.845Z,101793.28
2017-05-06T03:29:16.789Z,101792.31
2017-05-06T03:31:43.456Z,101786.95
2017-05-06T03:34:09.392Z,101782.10
2017-05-06T03:36:35.423Z,101785.88
2017-05-06T03:39:01.347Z,101779.02
2017-05-06T03:41:27.288Z,101775.57
2017-05-06T03:43:53.223Z,101773.38
2017-05-06T03:46:19.186Z,101769.84
2017-05-06T03:48:45.154Z,101763.27
2017-05-06T03:51:11.123Z,101759.55
2017-05-06T03:53:37.142Z,101768.63
2017-05-06T03:56:03.085Z,101767.83
2017-05-06T03:58:29.035Z,101765.60
2017-05-06T04:00:54.966Z,101757.14
2017-05-06T04:03:20.906Z,101756.23
2017-05-06T04:05:47.687Z,101754.72
2017-05-06T04:08:13.631Z,101746.35
2017-05-06T04:10:39.584Z,101747.95
2017-05-06T04:13:06.256Z,101743.46
2017-05-06T04:15:32.191Z,101744.72
2017-05-06T04:17:58.206Z,101748.59
2017-05-06T04:20:24.080Z,101751.04
2017-05-06T04:22:49.942Z,101746.20
2017-05-06T04:25:15.824Z,101748.48
2017-05-06T04:27:41.705Z,101746.28
2017-05-06T04:30:07.577Z,101746.45
2017-05-06T04:32:33.458Z,101741.92
2017-05-06T04:35:00.071Z,101739.49
2017-05-06T04:37:25.963Z,101735.96
2017-05-06T04:39:51.830Z,101743.53
2017-05-06T04:42:18.459Z,101740.45
2017-05-06T04:44:45.083Z,101745.34
2017-05-06T04:47:10.985Z,101736.22
2017-05-06T04:49:36.864Z,101736.87
2017-05-06T04:52:02.757Z,101728.05
2017-05-06T04:54:28.616Z,101729.14
2017-05-06T04:56:54.575Z,101729.41
2017-05-06T04:59:20.484Z,101719.79
2017-05-06T05:01:46.364Z,101719.07
2017-05-06T05:04:12.228Z,101716.66
2017-05-06T05:06:38.107Z,101705.88
2017-05-06T05:09:04.055Z,101706.13
2017-05-06T05:11:29.972Z,101708.91
2017-05-06T05:13:55.848Z,101707.02
2017-05-06T05:16:21.731Z,101698.91
2017-05-06T05:18:47.606Z,101699.59
2017-05-06T05:21:13.483Z,101693.39
2017-05-06T05:23:40.119Z,101701.41
2017-05-06T05:26:06.073Z,101696.66
2017-05-06T05:28:31.942Z,101693.03
2017-05-06T05:30:57.801Z,101689.29
2017-05-06T05:33:23.664Z,101686.71
2017-05-06T05:35:49.528Z,101680.50
2017-05-06T05:38:16.135Z,101682.65
2017-05-06T05:40:42.019Z,101677.39
2017-05-06T05:43:07.918Z,101675.53
2017-05-06T05:45:34.627Z,101676.67
2017-05-06T05:48:00.613Z,101669.05
2017-05-06T05:50:26.473Z,101667.95
2017-05-06T05:52:53.079Z,101671.44
2017-05-06T05:55:18.944Z,101664.89
2017-05-06T05:57:44.831Z,101660.88
2017-05-06T06:00:10.796Z,101665.56
2017-05-06T06:02:36.693Z,101663.23
2017-05-06T06:05:03.519Z,101656.55
2017-05-06T06:07:29.577Z,101653.71
2017-05-06T06:09:55.488Z,101652.25
2017-05-06T06:12:21.489Z,101653.34
2017-05-06T06:14:48.101Z,101657.15
2017-05-06T06:17:14.080Z,101658.67
2017-05-06T06:19:40.085Z,101658.23
2017-05-06T06:22:06.829Z,101649.48
2017-05-06T06:24:33.725Z,101657.70
2017-05-06T06:26:59.599Z,101655.55
2017-05-06T06:29:25.500Z,101655.83
2017-05-06T06:31:52.268Z,101651.07
2017-05-06T06:34:18.279Z,101649.16
2017-05-06T06:36:44.521Z,101640.52
2017-05-06T06:39:10.559Z,101643.28
2017-05-06T06:41:36.596Z,101644.13
2017-05-06T06:44:02.646Z,101636.31
2017-05-06T06:46:30.042Z,101635.02
2017-05-06T06:48:56.525Z,101626.69
2017-05-06T06:51:22.766Z,101628.17
2017-05-06T06:53:48.616Z,101620.56
2017-05-06T06:56:14.719Z,101620.67
2017-05-06T06:58:41.496Z,101612.19
2017-05-06T07:01:07.467Z,101607.70
2017-05-06T07:03:34.929Z,101602.65
2017-05-06T07:06:00.197Z,101594.88
2017-05-06T07:08:26.228Z,101593.75
2017-05-06T07:10:53.078Z,101588.64
2017-05-06T07:13:19.042Z,101580.22
2017-05-06T07:15:45.483Z,101574.65
2017-05-06T07:18:11.532Z,101569.35
2017-05-06T07:20:37.579Z,101571.86
2017-05-06T07:23:04.229Z,101569.35
2017-05-06T07:25:30.848Z,101567.58
2017-05-06T07:27:56.718Z,101565.52
2017-05-06T07:30:22.643Z,101565.52
2017-05-06T07:32:48.568Z,101562.30
2017-05-06T07:35:14.432Z,101556.77
2017-05-06T07:37:40.405Z,101555.17
2017-05-06T07:40:06.271Z,101550.66
2017-05-06T07:42:32.173Z,101547.66
2017-05-06T07:44:58.037Z,101548.45
2017-05-06T07:47:24.783Z,101552.86
2017-05-06T07:49:50.684Z,101546.95
2017-05-06T07:52:17.308Z,101546.39
2017-05-06T07:54:43.204Z,101540.18
2017-05-06T07:57:09.050Z,101527.70
2017-05-06T07:59:35.680Z,101526.72
2017-05-06T08:02:02.303Z,101521.91
2017-05-06T08:04:28.191Z,101517.42
2017-05-06T08:06:54.081Z,101518.80
2017-05-06T08:09:20.724Z,101512.22
2017-05-06T08:11:47.330Z,101501.97
2017-05-06T08:14:13.944Z,101498.19
2017-05-06T08:16:39.832Z,101506.24
2017-05-06T08:19:05.829Z,101495.56
2017-05-06T08:21:32.441Z,101490.47
2017-05-06T08:23:58.324Z,101486.46
2017-05-06T08:26:24.202Z,101483.93
2017-05-06T08:28:50.862Z,101482.17
2017-05-06T08:31:16.776Z,101481.86
2017-05-06T08:33:42.652Z,101480.87
2017-05-06T08:36:08.619Z,101481.70
2017-05-06T08:38:34.503Z,101471.33
2017-05-06T08:41:01.120Z,101472.98
2017-05-06T08:43:27.000Z,101474.80
2017-05-06T08:45:52.895Z,101465.24
2017-05-06T08:48:18.895Z,101469.70
2017-05-06T08:50:44.813Z,101468.95
2017-05-06T08:53:10.693Z,101472.88
2017-05-06T08:55:36.570Z,101475.66
2017-05-06T08:58:03.256Z,101469.84
2017-05-06T09:00:29.127Z,101472.05
2017-05-06T09:02:55.751Z,101463.80
2017-05-06T09:05:21.620Z,101470.26
2017-05-06T09:07:47.493Z,101467.62
2017-05-06T09:10:14.120Z,101464.16
2017-05-06T09:12:40.010Z,101460.37
2017-05-06T09:15:06.049Z,101456.58
2017-05-06T09:17:31.949Z,101454.59
2017-05-06T09:19:57.827Z,101450.57
2017-05-06T09:22:23.707Z,101450.15
2017-05-06T09:24:49.625Z,101446.03
2017-05-06T09:27:15.674Z,101444.53
2017-05-06T09:29:42.303Z,101442.73
2017-05-06T09:32:08.255Z,101439.18
2017-05-06T09:34:34.140Z,101434.45
2017-05-06T09:37:00.079Z,101430.60
2017-05-06T09:39:26.699Z,101424.88
2017-05-06T09:41:52.595Z,101430.63
2017-05-06T09:44:18.472Z,101420.19
2017-05-06T09:46:44.361Z,101411.12
2017-05-06T09:49:10.242Z,101418.17
2017-05-06T09:51:36.129Z,101412.38
2017-05-06T09:54:02.045Z,101407.27
2017-05-06T09:56:28.686Z,101403.16
2017-05-06T09:58:54.612Z,101406.83
2017-05-06T10:01:20.531Z,101397.74
2017-05-06T10:03:46.432Z,101398.25
2017-05-06T10:06:13.105Z,101401.86
2017-05-06T10:08:39.007Z,101400.83
2017-05-06T10:11:04.888Z,101392.97
2017-05-06T10:13:30.775Z,101387.13
2017-05-06T10:15:56.645Z,101387.55
2017-05-06T10:18:23.299Z,101380.08
2017-05-06T10:20:49.232Z,101376.59
2017-05-06T10:23:15.096Z,101379.27
2017-05-06T10:25:40.968Z,101368.47
2017-05-06T10:28:06.856Z,101362.32
2017-05-06T10:30:33.560Z,101358.77
2017-05-06T10:32:59.446Z,101352.17
2017-05-06T10:35:25.324Z,101353.80
2017-05-06T10:37:51.223Z,101349.69
2017-05-06T10:40:17.195Z,101348.41
2017-05-06T10:42:43.911Z,101345.62
2017-05-06T10:45:10.521Z,101345.63
2017-05-06T10:47:36.412Z,101338.41
2017-05-06T10:50:02.330Z,101338.38
2017-05-06T10:52:29.019Z,101338.09
2017-05-06T10:54:54.901Z,101332.40
2017-05-06T10:57:20.807Z,101326.00
2017-05-06T10:59:46.791Z,101320.41
2017-05-06T11:02:13.438Z,101317.89
2017-05-06T11:04:40.109Z,101310.31
2017-05-06T11:07:05.975Z,101307.85
2017-05-06T11:09:31.870Z,101300.81
2017-05-06T11:11:57.748Z,101304.96
2017-05-06T11:14:23.637Z,101298.36
2017-05-06T11:16:49.641Z,101300.01
2017-05-06T11:19:15.510Z,101298.01
2017-05-06T11:21:41.382Z,101295.17
2017-05-06T11:24:07.341Z,101293.23
2017-05-06T11:26:33.276Z,101287.41
2017-05-06T11:28:59.248Z,101293.91
2017-05-06T11:31:25.169Z,101286.23
2017-05-06T11:33:51.056Z,101273.67
2017-05-06T11:36:16.943Z,101274.03
2017-05-06T11:38:43.573Z,101269.52
2017-05-06T11:41:09.478Z,101269.53
2017-05-06T11:43:35.556Z,101265.39
2017-05-06T11:46:01.532Z,101260.96
2017-05-06T11:48:28.231Z,101263.65
2017-05-06T11:50:54.124Z,101254.25
2017-05-06T11:53:20.009Z,101253.91
2017-05-06T11:55:46.641Z,101252.57
2017-05-06T11:58:13.258Z,101264.19
2017-05-06T12:00:39.200Z,101257.59
2017-05-06T12:03:05.033Z,101249.56
2017-05-06T12:05:31.657Z,101251.09
2017-05-06T12:07:58.300Z,101253.48
2017-05-06T12:10:24.919Z,101250.80
2017-05-06T12:12:50.812Z,101242.11
2017-05-06T12:15:16.679Z,101240.03
2017-05-06T12:17:43.361Z,101240.94
2017-05-06T12:20:09.244Z,101242.98
2017-05-06T12:22:35.950Z,101239.64
2017-05-06T12:25:01.830Z,101239.16
2017-05-06T12:27:27.712Z,101240.66
2017-05-06T12:29:54.461Z,101238.25
2017-05-06T12:32:20.372Z,101240.95
2017-05-06T12:34:47.285Z,101241.22
2017-05-06T12:37:13.427Z,101239.47
2017-05-06T12:39:40.039Z,101245.25
2017-05-06T12:42:05.934Z,101244.31
2017-05-06T12:44:31.871Z,101239.81
2017-05-06T12:46:58.433Z,101235.10
2017-05-06T12:49:24.355Z,101232.05
2017-05-06T12:51:50.234Z,101229.28
2017-05-06T12:54:16.120Z,101226.36
2017-05-06T12:56:42.756Z,101222.98
2017-05-06T12:59:09.414Z,101212.81
2017-05-06T15:48:26.905Z,101172.41
2017-05-06T15:50:52.771Z,101170.80
2017-05-06T15:53:18.662Z,101171.55
2017-05-06T15:55:44.559Z,101173.34
2017-05-06T15:58:10.432Z,101168.20
2017-05-06T16:00:36.300Z,101162.05
2017-05-06T16:03:02.185Z,101158.63
2017-05-06T16:05:28.076Z,101161.14
2017-05-06T16:07:54.390Z,101153.75
2017-05-06T16:10:20.237Z,101154.17
2017-05-06T16:12:46.120Z,101152.27
2017-05-06T16:15:12.008Z,101148.39
2017-05-06T16:17:38.743Z,101154.69
2017-05-06T16:20:05.369Z,101147.80
2017-05-06T16:22:31.233Z,101149.15
2017-05-06T16:24:57.184Z,101155.75
2017-05-06T16:27:23.090Z,101154.88
2017-05-06T16:29:48.957Z,101153.34
2017-05-06T16:32:15.003Z,101156.70
2017-05-06T16:34:40.836Z,101151.81
2017-05-06T16:37:06.713Z,101154.86
2017-05-06T16:39:32.594Z,101148.06
2017-05-06T16:41:58.527Z,101164.84
2017-05-06T16:44:24.683Z,101167.33
2017-05-06T16:46:50.547Z,101162.66
2017-05-06T16:49:16.444Z,101164.48
2017-05-06T16:51:42.350Z,101166.08
2017-05-06T16:54:08.971Z,101172.50
2017-05-06T16:56:34.940Z,101169.27
2017-05-06T16:59:00.869Z,101169.27
2017-05-06T17:01:27.532Z,101167.92
2017-05-06T17:06:24.329Z,101171.80
2017-05-06T17:08:51.036Z,101175.89
2017-05-06T17:11:16.900Z,101176.22
2017-05-06T17:13:42.874Z,101175.12
2017-05-06T17:16:08.851Z,101170.43
2017-05-06T17:18:34.753Z,101175.09
2017-05-06T17:21:01.417Z,101177.34
2017-05-06T17:23:27.460Z,101172.58
2017-05-06T17:25:53.725Z,101165.98
2017-05-06T17:28:20.444Z,101174.00
2017-05-06T17:30:47.371Z,101178.41
2017-05-06T17:33:13.386Z,101179.16
2017-05-06T17:35:40.123Z,101185.25
2017-05-06T17:40:37.224Z,101180.80
2017-05-06T17:43:03.228Z,101176.56
2017-05-06T17:45:29.202Z,101178.92
2017-05-06T17:47:55.828Z,101177.66
2017-05-06T17:50:22.541Z,101181.23
2017-05-06T17:52:48.425Z,101182.02
2017-05-06T17:55:14.303Z,101183.02
2017-05-06T17:57:40.923Z,101183.59
2017-05-06T18:00:06.835Z,101186.01
2017-05-06T18:02:32.805Z,101193.11
2017-05-06T18:04:58.683Z,101196.43
2017-05-06T18:07:24.554Z,101194.27
2017-05-06T18:09:50.577Z,101203.88
2017-05-06T18:12:16.698Z,101200.64
2017-05-06T18:14:43.372Z,101197.12
2017-05-06T18:17:09.257Z,101203.37
2017-05-06T18:19:35.134Z,101198.31
2017-05-06T18:22:01.767Z,101198.54
2017-05-06T18:24:27.650Z,101204.94
2017-05-06T18:26:53.752Z,101208.11
2017-05-06T18:29:19.706Z,101205.05
2017-05-06T18:31:45.664Z,101206.46
2017-05-06T18:34:11.522Z,101204.72
2017-05-06T18:36:37.403Z,101202.84
2017-05-06T18:39:04.115Z,101204.98
2017-05-06T18:41:29.998Z,101208.27
2017-05-06T18:43:55.904Z,101207.47
2017-05-06T18:46:22.563Z,101214.78
2017-05-06T18:48:48.471Z,101216.30
2017-05-06T18:51:14.497Z,101216.95
2017-05-06T18:53:40.381Z,101219.73
2017-05-06T18:56:07.009Z,101226.36
2017-05-06T18:58:33.654Z,101230.84
2017-05-06T19:01:00.358Z,101231.80
2017-05-06T19:03:26.295Z,101237.91
2017-05-06T19:05:52.941Z,101240.48
2017-05-06T19:08:19.108Z,101242.81
2017-05-06T19:13:15.880Z,101245.82
2017-05-06T19:15:42.620Z,101250.55
2017-05-06T19:18:08.495Z,101255.98
2017-05-06T19:20:35.175Z,101255.24
2017-05-06T19:23:01.052Z,101255.16
2017-05-06T19:25:27.675Z,101259.38
2017-05-06T19:27:53.645Z,101267.16
2017-05-06T19:30:19.527Z,101268.48
2017-05-06T19:32:46.304Z,101271.47
2017-05-06T19:35:12.193Z,101275.23
2017-05-06T19:37:38.098Z,101278.55
2017-05-06T19:40:04.038Z,101278.77
2017-05-06T19:42:30.688Z,101285.70
2017-05-06T19:44:56.568Z,101283.05
2017-05-06T19:47:22.498Z,101283.21
2017-05-06T19:49:48.627Z,101290.41
2017-05-06T19:52:14.756Z,101290.93
2017-05-06T19:54:41.371Z,101288.77
2017-05-06T19:57:07.235Z,101288.23
2017-05-06T19:59:33.369Z,101293.20
2017-05-06T20:01:59.466Z,101292.39
2017-05-06T20:04:25.473Z,101291.88
2017-05-06T20:06:51.348Z,101294.64
2017-05-06T20:09:17.282Z,101301.09
2017-05-06T20:11:44.151Z,101302.55
2017-05-06T20:14:10.025Z,101302.18
2017-05-06T20:16:35.956Z,101300.31
2017-05-06T20:19:01.836Z,101305.46
2017-05-06T20:21:28.503Z,101304.14
2017-05-06T20:23:54.395Z,101301.81
2017-05-06T20:26:21.048Z,101311.97
2017-05-06T20:28:47.726Z,101312.59
2017-05-06T20:31:13.709Z,101315.72
2017-05-06T20:33:40.300Z,101318.40
2017-05-06T20:36:06.206Z,101312.86
2017-05-06T20:38:32.092Z,101316.93
2017-05-06T20:40:58.116Z,101322.75
2017-05-06T20:43:23.987Z,101327.10
2017-05-06T20:45:49.890Z,101326.48
2017-05-06T20:48:15.769Z,101329.98
2017-05-06T20:50:41.656Z,101331.09
2017-05-06T20:53:08.376Z,101329.66
2017-05-06T20:55:34.264Z,101334.32
2017-05-06T20:58:00.153Z,101334.84
2017-05-06T21:00:26.781Z,101331.45
2017-05-06T21:02:53.416Z,101336.20
2017-05-06T21:05:20.841Z,101337.09
2017-05-06T21:07:46.731Z,101341.59
2017-05-06T21:10:12.675Z,101349.88
2017-05-06T21:12:38.585Z,101347.83
2017-05-06T21:15:04.501Z,101351.58
2017-05-06T21:17:30.511Z,101347.88
2017-05-06T21:19:56.397Z,101356.29
2017-05-06T21:22:23.025Z,101352.10
2017-05-06T21:24:49.713Z,101353.03
2017-05-06T21:27:15.581Z,101357.81
2017-05-06T21:29:42.282Z,101356.67
2017-05-06T21:32:08.168Z,101361.98
2017-05-06T21:34:34.096Z,101365.21
2017-05-06T21:37:00.252Z,101365.78
2017-05-06T21:39:26.129Z,101366.38
2017-05-06T21:41:52.091Z,101365.93
2017-05-06T21:44:18.020Z,101371.39
2017-05-06T21:46:43.907Z,101374.08
2017-05-06T21:49:09.808Z,101373.17
2017-05-06T21:51:35.724Z,101378.84
2017-05-06T21:54:02.434Z,101380.53
2017-05-06T21:56:28.384Z,101384.39
2017-05-06T21:58:54.223Z,101376.98
2017-05-06T22:01:20.205Z,101382.69
2017-05-06T22:03:46.071Z,101383.91
2017-05-06T22:06:12.109Z,101386.75
2017-05-06T22:08:38.003Z,101389.63
2017-05-06T22:11:03.925Z,101387.18
2017-05-06T22:13:29.922Z,101392.66
2017-05-06T22:15:56.560Z,101391.39
2017-05-06T22:18:23.358Z,101394.94
2017-05-06T22:20:49.250Z,101398.30
2017-05-06T22:23:15.131Z,101394.67
2017-05-06T22:25:41.805Z,101403.41
2017-05-06T22:28:07.671Z,101406.64
2017-05-06T22:30:33.622Z,101399.41
2017-05-06T22:33:00.269Z,101408.29
2017-05-06T22:35:26.401Z,101410.78
2017-05-06T22:37:52.638Z,101410.63
2017-05-06T22:40:19.377Z,101412.09
2017-05-06T22:42:46.151Z,101416.09
2017-05-06T22:45:12.024Z,101420.48
2017-05-06T22:47:37.930Z,101420.03
2017-05-06T22:50:03.812Z,101423.30
2017-05-06T22:52:29.709Z,101426.37
2017-05-06T22:54:55.704Z,101430.47
2017-05-06T22:57:21.643Z,101426.59
2017-05-06T22:59:47.492Z,101429.74
2017-05-06T23:02:13.372Z,101437.30
2017-05-06T23:04:39.616Z,101435.56
2017-05-06T23:07:05.503Z,101436.59
2017-05-06T23:09:31.391Z,101439.41
2017-05-06T23:11:57.389Z,101441.31
2017-05-06T23:14:23.261Z,101442.88
2017-05-06T23:16:49.277Z,101444.81
2017-05-06T23:19:15.150Z,101446.63
2017-05-06T23:21:41.036Z,101444.71
2017-05-06T23:24:06.917Z,101450.25
2017-05-06T23:26:32.851Z,101453.55
2017-05-06T23:28:59.566Z,101456.61
2017-05-06T23:31:25.457Z,101456.27
2017-05-06T23:33:51.368Z,101464.10
2017-05-06T23:36:17.243Z,101453.27
2017-05-06T23:38:43.900Z,101460.55
2017-05-06T23:41:09.909Z,101465.06
2017-05-06T23:43:36.520Z,101456.47
2017-05-06T23:46:02.396Z,101460.81
2017-05-06T23:48:28.288Z,101460.81
2017-05-06T23:50:54.939Z,101461.14
2017-05-06T23:53:20.815Z,101463.38
2017-05-06T23:55:46.704Z,101463.59
2017-05-06T23:58:12.690Z,101463.90
